sensor_id;sensor_type;location;lat;lon;timestamp;temperature;humidity
75782;DHT22;64400;44.762;37.698;2023-02-10T00:01:36;-4.16;77.30
75782;DHT22;64400;44.762;37.698;2023-02-10T00:04:04;-4.17;77.06
75782;DHT22;64400;44.762;37.698;2023-02-10T00:06:32;-4.08;77.17
75782;DHT22;64400;44.762;37.698;2023-02-10T00:09:01;-4.01;77.22
75782;DHT22;64400;44.762;37.698;2023-02-10T00:11:30;-3.97;76.12
75782;DHT22;64400;44.762;37.698;2023-02-10T00:14:18;-3.95;76.92
75782;DHT22;64400;44.762;37.698;2023-02-10T00:16:49;-3.92;76.30
75782;DHT22;64400;44.762;37.698;2023-02-10T00:19:20;-3.86;75.85
75782;DHT22;64400;44.762;37.698;2023-02-10T00:21:48;-3.77;76.28
75782;DHT22;64400;44.762;37.698;2023-02-10T00:24:16;-3.68;77.69
75782;DHT22;64400;44.762;37.698;2023-02-10T00:26:44;-3.70;75.97
75782;DHT22;64400;44.762;37.698;2023-02-10T00:29:13;-3.71;75.21
75782;DHT22;64400;44.762;37.698;2023-02-10T00:31:41;-3.69;75.61
75782;DHT22;64400;44.762;37.698;2023-02-10T00:34:14;-3.71;75.89
75782;DHT22;64400;44.762;37.698;2023-02-10T00:36:45;-3.67;76.05
75782;DHT22;64400;44.762;37.698;2023-02-10T00:39:17;-3.58;76.08
75782;DHT22;64400;44.762;37.698;2023-02-10T00:41:45;-3.56;75.03
75782;DHT22;64400;44.762;37.698;2023-02-10T00:44:13;-3.55;74.99
75782;DHT22;64400;44.762;37.698;2023-02-10T00:46:41;-3.54;75.89
75782;DHT22;64400;44.762;37.698;2023-02-10T00:49:10;-3.51;74.68
75782;DHT22;64400;44.762;37.698;2023-02-10T00:51:39;-3.52;75.26
75782;DHT22;64400;44.762;37.698;2023-02-10T00:54:08;-3.49;75.50
75782;DHT22;64400;44.762;37.698;2023-02-10T00:56:36;-3.49;75.22
75782;DHT22;64400;44.762;37.698;2023-02-10T00:59:04;-3.47;74.76
75782;DHT22;64400;44.762;37.698;2023-02-10T01:01:33;-3.46;75.01
75782;DHT22;64400;44.762;37.698;2023-02-10T01:04:01;-3.48;75.92
75782;DHT22;64400;44.762;37.698;2023-02-10T01:06:29;-3.45;75.97
75782;DHT22;64400;44.762;37.698;2023-02-10T01:08:57;-3.46;76.12
75782;DHT22;64400;44.762;37.698;2023-02-10T01:11:25;-3.49;76.37
75782;DHT22;64400;44.762;37.698;2023-02-10T01:13:53;-3.51;76.46
75782;DHT22;64400;44.762;37.698;2023-02-10T01:16:21;-3.54;76.32
75782;DHT22;64400;44.762;37.698;2023-02-10T01:18:49;-3.58;77.20
75782;DHT22;64400;44.762;37.698;2023-02-10T01:21:19;-3.64;76.71
75782;DHT22;64400;44.762;37.698;2023-02-10T01:23:48;-3.69;77.01
75782;DHT22;64400;44.762;37.698;2023-02-10T01:26:16;-3.69;77.40
75782;DHT22;64400;44.762;37.698;2023-02-10T01:28:45;-3.71;76.65
75782;DHT22;64400;44.762;37.698;2023-02-10T01:31:15;-3.69;76.66
75782;DHT22;64400;44.762;37.698;2023-02-10T01:33:43;-3.71;76.80
75782;DHT22;64400;44.762;37.698;2023-02-10T01:36:14;-3.70;77.04
75782;DHT22;64400;44.762;37.698;2023-02-10T01:38:42;-3.75;77.23
75782;DHT22;64400;44.762;37.698;2023-02-10T01:41:12;-3.79;77.56
75782;DHT22;64400;44.762;37.698;2023-02-10T01:46:22;-3.81;77.65
75782;DHT22;64400;44.762;37.698;2023-02-10T01:48:51;-3.80;77.72
75782;DHT22;64400;44.762;37.698;2023-02-10T01:51:22;-3.81;78.29
75782;DHT22;64400;44.762;37.698;2023-02-10T01:53:52;-3.81;77.20
75782;DHT22;64400;44.762;37.698;2023-02-10T01:56:21;-3.83;78.27
75782;DHT22;64400;44.762;37.698;2023-02-10T01:58:49;-3.86;78.14
75782;DHT22;64400;44.762;37.698;2023-02-10T02:01:17;-3.95;78.18
75782;DHT22;64400;44.762;37.698;2023-02-10T02:03:45;-4.02;77.92
75782;DHT22;64400;44.762;37.698;2023-02-10T02:06:14;-4.01;79.33
75782;DHT22;64400;44.762;37.698;2023-02-10T02:08:42;-4.00;79.12
75782;DHT22;64400;44.762;37.698;2023-02-10T02:25:05;-3.97;78.62
75782;DHT22;64400;44.762;37.698;2023-02-10T02:33:28;-4.07;79.85
75782;DHT22;64400;44.762;37.698;2023-02-10T02:36:56;-4.08;79.95
75782;DHT22;64400;44.762;37.698;2023-02-10T02:39:00;-4.13;79.59
75782;DHT22;64400;44.762;37.698;2023-02-10T02:41:31;-4.20;80.09
75782;DHT22;64400;44.762;37.698;2023-02-10T02:44:01;-4.22;79.93
75782;DHT22;64400;44.762;37.698;2023-02-10T02:47:00;-4.25;79.74
75782;DHT22;64400;44.762;37.698;2023-02-10T02:49:56;-4.29;80.80
75782;DHT22;64400;44.762;37.698;2023-02-10T03:00:49;-4.35;81.49
75782;DHT22;64400;44.762;37.698;2023-02-10T03:03:18;-4.36;81.88
75782;DHT22;64400;44.762;37.698;2023-02-10T03:05:47;-4.40;81.68
75782;DHT22;64400;44.762;37.698;2023-02-10T03:08:15;-4.44;82.24
75782;DHT22;64400;44.762;37.698;2023-02-10T03:10:43;-4.44;82.20
75782;DHT22;64400;44.762;37.698;2023-02-10T03:13:11;-4.46;82.61
75782;DHT22;64400;44.762;37.698;2023-02-10T03:15:39;-4.46;82.59
75782;DHT22;64400;44.762;37.698;2023-02-10T03:18:07;-4.46;83.10
75782;DHT22;64400;44.762;37.698;2023-02-10T03:20:35;-4.45;83.41
75782;DHT22;64400;44.762;37.698;2023-02-10T03:23:03;-4.44;83.32
75782;DHT22;64400;44.762;37.698;2023-02-10T03:25:31;-4.43;83.57
75782;DHT22;64400;44.762;37.698;2023-02-10T03:28:01;-4.41;83.37
75782;DHT22;64400;44.762;37.698;2023-02-10T03:30:29;-4.39;83.81
75782;DHT22;64400;44.762;37.698;2023-02-10T03:32:57;-4.36;83.24
75782;DHT22;64400;44.762;37.698;2023-02-10T03:35:25;-4.36;84.14
75782;DHT22;64400;44.762;37.698;2023-02-10T03:37:53;-4.35;83.29
75782;DHT22;64400;44.762;37.698;2023-02-10T03:40:21;-4.32;84.13
75782;DHT22;64400;44.762;37.698;2023-02-10T03:42:49;-4.29;83.73
75782;DHT22;64400;44.762;37.698;2023-02-10T03:45:17;-4.29;83.67
75782;DHT22;64400;44.762;37.698;2023-02-10T03:47:45;-4.27;84.36
75782;DHT22;64400;44.762;37.698;2023-02-10T03:50:13;-4.27;83.95
75782;DHT22;64400;44.762;37.698;2023-02-10T03:52:41;-4.24;84.67
75782;DHT22;64400;44.762;37.698;2023-02-10T03:55:09;-4.24;84.64
75782;DHT22;64400;44.762;37.698;2023-02-10T03:57:42;-4.24;84.58
75782;DHT22;64400;44.762;37.698;2023-02-10T04:00:11;-4.24;84.44
75782;DHT22;64400;44.762;37.698;2023-02-10T04:02:39;-4.24;85.07
75782;DHT22;64400;44.762;37.698;2023-02-10T04:05:07;-4.24;85.32
75782;DHT22;64400;44.762;37.698;2023-02-10T04:07:35;-4.24;85.69
75782;DHT22;64400;44.762;37.698;2023-02-10T04:10:04;-4.24;85.45
75782;DHT22;64400;44.762;37.698;2023-02-10T04:12:32;-4.21;85.74
75782;DHT22;64400;44.762;37.698;2023-02-10T04:15:00;-4.22;86.03
75782;DHT22;64400;44.762;37.698;2023-02-10T04:17:30;-4.19;86.50
75782;DHT22;64400;44.762;37.698;2023-02-10T04:19:58;-4.14;86.51
75782;DHT22;64400;44.762;37.698;2023-02-10T04:22:26;-4.12;86.84
75782;DHT22;64400;44.762;37.698;2023-02-10T04:24:54;-4.11;86.72
75782;DHT22;64400;44.762;37.698;2023-02-10T04:27:22;-4.09;86.77
75782;DHT22;64400;44.762;37.698;2023-02-10T04:29:50;-4.07;86.54
75782;DHT22;64400;44.762;37.698;2023-02-10T04:32:18;-4.05;86.96
75782;DHT22;64400;44.762;37.698;2023-02-10T04:34:46;-4.02;86.77
75782;DHT22;64400;44.762;37.698;2023-02-10T04:37:14;-4.00;87.01
75782;DHT22;64400;44.762;37.698;2023-02-10T04:39:42;-3.98;86.89
75782;DHT22;64400;44.762;37.698;2023-02-10T04:42:11;-3.97;86.94
75782;DHT22;64400;44.762;37.698;2023-02-10T04:44:38;-3.94;87.28
75782;DHT22;64400;44.762;37.698;2023-02-10T04:47:07;-3.92;87.33
75782;DHT22;64400;44.762;37.698;2023-02-10T04:49:34;-3.89;86.69
75782;DHT22;64400;44.762;37.698;2023-02-10T04:52:02;-3.87;86.57
75782;DHT22;64400;44.762;37.698;2023-02-10T04:54:30;-3.84;86.92
75782;DHT22;64400;44.762;37.698;2023-02-10T04:56:58;-3.82;87.54
75782;DHT22;64400;44.762;37.698;2023-02-10T04:59:26;-3.78;87.53
75782;DHT22;64400;44.762;37.698;2023-02-10T05:01:54;-3.74;87.17
75782;DHT22;64400;44.762;37.698;2023-02-10T05:04:22;-3.67;86.98
75782;DHT22;64400;44.762;37.698;2023-02-10T05:06:50;-3.61;86.96
75782;DHT22;64400;44.762;37.698;2023-02-10T05:09:18;-3.53;87.17
75782;DHT22;64400;44.762;37.698;2023-02-10T05:11:46;-3.47;87.17
75782;DHT22;64400;44.762;37.698;2023-02-10T05:14:14;-3.40;86.64
75782;DHT22;64400;44.762;37.698;2023-02-10T05:16:42;-3.34;85.87
75782;DHT22;64400;44.762;37.698;2023-02-10T05:19:10;-3.32;85.63
75782;DHT22;64400;44.762;37.698;2023-02-10T05:21:38;-3.26;85.02
75782;DHT22;64400;44.762;37.698;2023-02-10T05:24:06;-3.30;84.22
75782;DHT22;64400;44.762;37.698;2023-02-10T05:26:34;-3.28;83.46
75782;DHT22;64400;44.762;37.698;2023-02-10T05:29:02;-3.28;83.23
75782;DHT22;64400;44.762;37.698;2023-02-10T05:31:30;-3.23;83.31
75782;DHT22;64400;44.762;37.698;2023-02-10T05:33:58;-3.20;83.61
75782;DHT22;64400;44.762;37.698;2023-02-10T05:36:26;-3.16;83.11
75782;DHT22;64400;44.762;37.698;2023-02-10T05:38:54;-3.10;83.68
75782;DHT22;64400;44.762;37.698;2023-02-10T05:41:41;-3.09;83.28
75782;DHT22;64400;44.762;37.698;2023-02-10T05:44:08;-3.04;83.07
75782;DHT22;64400;44.762;37.698;2023-02-10T05:46:36;-3.02;82.41
75782;DHT22;64400;44.762;37.698;2023-02-10T05:49:05;-3.02;81.79
75782;DHT22;64400;44.762;37.698;2023-02-10T05:51:33;-3.01;81.83
75782;DHT22;64400;44.762;37.698;2023-02-10T05:54:02;-3.04;81.27
75782;DHT22;64400;44.762;37.698;2023-02-10T05:56:30;-3.06;81.94
75782;DHT22;64400;44.762;37.698;2023-02-10T05:58:58;-3.07;81.79
75782;DHT22;64400;44.762;37.698;2023-02-10T06:01:26;-3.05;82.12
75782;DHT22;64400;44.762;37.698;2023-02-10T06:03:55;-3.00;81.94
75782;DHT22;64400;44.762;37.698;2023-02-10T06:06:23;-2.94;81.94
75782;DHT22;64400;44.762;37.698;2023-02-10T06:08:51;-2.89;81.59
75782;DHT22;64400;44.762;37.698;2023-02-10T06:11:19;-2.84;81.26
75782;DHT22;64400;44.762;37.698;2023-02-10T06:13:47;-2.79;81.30
75782;DHT22;64400;44.762;37.698;2023-02-10T06:16:15;-2.74;81.63
75782;DHT22;64400;44.762;37.698;2023-02-10T06:18:43;-2.65;81.48
75782;DHT22;64400;44.762;37.698;2023-02-10T06:21:16;-2.57;80.95
75782;DHT22;64400;44.762;37.698;2023-02-10T06:23:44;-2.52;81.23
75782;DHT22;64400;44.762;37.698;2023-02-10T06:26:12;-2.47;80.94
75782;DHT22;64400;44.762;37.698;2023-02-10T06:28:40;-2.41;81.05
75782;DHT22;64400;44.762;37.698;2023-02-10T06:31:08;-2.28;81.19
75782;DHT22;64400;44.762;37.698;2023-02-10T06:33:36;-2.14;81.07
75782;DHT22;64400;44.762;37.698;2023-02-10T06:36:05;-2.02;79.75
75782;DHT22;64400;44.762;37.698;2023-02-10T06:38:36;-1.89;80.46
75782;DHT22;64400;44.762;37.698;2023-02-10T06:41:05;-1.72;80.32
75782;DHT22;64400;44.762;37.698;2023-02-10T06:43:33;-1.62;78.77
75782;DHT22;64400;44.762;37.698;2023-02-10T06:46:01;-1.50;79.01
75782;DHT22;64400;44.762;37.698;2023-02-10T06:48:30;-1.41;79.31
75782;DHT22;64400;44.762;37.698;2023-02-10T06:50:58;-1.31;79.43
75782;DHT22;64400;44.762;37.698;2023-02-10T06:53:25;-1.18;78.92
75782;DHT22;64400;44.762;37.698;2023-02-10T06:55:57;-1.10;78.60
75782;DHT22;64400;44.762;37.698;2023-02-10T06:58:25;-1.02;78.63
75782;DHT22;64400;44.762;37.698;2023-02-10T07:00:53;-0.90;78.82
75782;DHT22;64400;44.762;37.698;2023-02-10T07:03:21;-0.79;77.71
75782;DHT22;64400;44.762;37.698;2023-02-10T07:05:50;-0.71;77.69
75782;DHT22;64400;44.762;37.698;2023-02-10T07:08:18;-0.64;77.52
75782;DHT22;64400;44.762;37.698;2023-02-10T07:10:47;-0.56;77.50
75782;DHT22;64400;44.762;37.698;2023-02-10T07:13:16;-0.47;77.26
75782;DHT22;64400;44.762;37.698;2023-02-10T07:15:44;-0.40;76.64
75782;DHT22;64400;44.762;37.698;2023-02-10T07:18:12;-0.36;75.85
75782;DHT22;64400;44.762;37.698;2023-02-10T07:20:40;-0.25;77.24
75782;DHT22;64400;44.762;37.698;2023-02-10T07:23:08;-0.12;76.13
75782;DHT22;64400;44.762;37.698;2023-02-10T07:25:36;-0.06;75.42
75782;DHT22;64400;44.762;37.698;2023-02-10T07:28:04;-0.02;76.36
75782;DHT22;64400;44.762;37.698;2023-02-10T07:30:35;0.02;75.57
75782;DHT22;64400;44.762;37.698;2023-02-10T07:33:03;-0.03;75.25
75782;DHT22;64400;44.762;37.698;2023-02-10T07:35:31;0.03;75.77
75782;DHT22;64400;44.762;37.698;2023-02-10T07:37:59;0.01;75.57
75782;DHT22;64400;44.762;37.698;2023-02-10T07:40:27;-0.01;76.18
75782;DHT22;64400;44.762;37.698;2023-02-10T07:42:57;0.04;76.57
75782;DHT22;64400;44.762;37.698;2023-02-10T07:45:46;0.12;76.01
75782;DHT22;64400;44.762;37.698;2023-02-10T07:48:15;0.15;76.74
75782;DHT22;64400;44.762;37.698;2023-02-10T07:50:44;0.14;75.54
75782;DHT22;64400;44.762;37.698;2023-02-10T07:53:13;0.12;75.89
75782;DHT22;64400;44.762;37.698;2023-02-10T07:55:41;0.15;75.94
75782;DHT22;64400;44.762;37.698;2023-02-10T07:58:10;0.17;75.79
75782;DHT22;64400;44.762;37.698;2023-02-10T08:00:38;0.20;76.19
75782;DHT22;64400;44.762;37.698;2023-02-10T08:03:12;0.32;75.22
75782;DHT22;64400;44.762;37.698;2023-02-10T08:05:40;0.40;75.28
75782;DHT22;64400;44.762;37.698;2023-02-10T08:08:10;0.44;74.66
75782;DHT22;64400;44.762;37.698;2023-02-10T08:10:40;0.55;74.47
75782;DHT22;64400;44.762;37.698;2023-02-10T08:13:09;0.66;74.31
75782;DHT22;64400;44.762;37.698;2023-02-10T08:15:37;0.74;74.51
75782;DHT22;64400;44.762;37.698;2023-02-10T08:18:05;0.83;73.92
75782;DHT22;64400;44.762;37.698;2023-02-10T08:20:33;0.96;74.36
75782;DHT22;64400;44.762;37.698;2023-02-10T08:23:01;1.08;73.69
75782;DHT22;64400;44.762;37.698;2023-02-10T08:25:30;1.20;74.38
75782;DHT22;64400;44.762;37.698;2023-02-10T08:27:58;1.22;74.11
75782;DHT22;64400;44.762;37.698;2023-02-10T08:30:26;1.28;74.37
75782;DHT22;64400;44.762;37.698;2023-02-10T08:32:54;1.27;73.98
75782;DHT22;64400;44.762;37.698;2023-02-10T08:35:23;1.38;74.11
75782;DHT22;64400;44.762;37.698;2023-02-10T08:37:51;1.49;74.33
75782;DHT22;64400;44.762;37.698;2023-02-10T08:40:20;1.57;72.54
75782;DHT22;64400;44.762;37.698;2023-02-10T08:42:48;1.61;73.76
75782;DHT22;64400;44.762;37.698;2023-02-10T08:45:16;1.68;73.55
75782;DHT22;64400;44.762;37.698;2023-02-10T08:47:45;1.82;72.77
75782;DHT22;64400;44.762;37.698;2023-02-10T08:50:13;2.01;72.03
75782;DHT22;64400;44.762;37.698;2023-02-10T08:52:41;2.17;71.62
75782;DHT22;64400;44.762;37.698;2023-02-10T08:55:09;2.41;70.48
75782;DHT22;64400;44.762;37.698;2023-02-10T08:57:38;2.59;70.10
75782;DHT22;64400;44.762;37.698;2023-02-10T09:00:07;2.75;70.25
75782;DHT22;64400;44.762;37.698;2023-02-10T09:06:36;3.26;69.73
75782;DHT22;64400;44.762;37.698;2023-02-10T09:09:27;3.57;69.61
75782;DHT22;64400;44.762;37.698;2023-02-10T09:11:57;3.84;68.17
75782;DHT22;64400;44.762;37.698;2023-02-10T09:14:46;4.19;68.89
75782;DHT22;64400;44.762;37.698;2023-02-10T09:17:36;4.51;67.10
75782;DHT22;64400;44.762;37.698;2023-02-10T09:20:27;4.94;66.01
75782;DHT22;64400;44.762;37.698;2023-02-10T09:23:17;5.36;64.72
75782;DHT22;64400;44.762;37.698;2023-02-10T09:25:56;5.89;63.66
75782;DHT22;64400;44.762;37.698;2023-02-10T09:28:31;6.00;62.40
75782;DHT22;64400;44.762;37.698;2023-02-10T09:31:20;6.09;64.42
75782;DHT22;64400;44.762;37.698;2023-02-10T09:34:10;6.08;63.37
75782;DHT22;64400;44.762;37.698;2023-02-10T09:36:59;6.23;63.05
75782;DHT22;64400;44.762;37.698;2023-02-10T09:39:50;7.12;63.39
75782;DHT22;64400;44.762;37.698;2023-02-10T09:45:34;7.38;61.70
75782;DHT22;64400;44.762;37.698;2023-02-10T09:54:19;7.85;59.12
75782;DHT22;64400;44.762;37.698;2023-02-10T09:56:49;8.00;59.05
75782;DHT22;64400;44.762;37.698;2023-02-10T09:59:33;8.11;58.76
75782;DHT22;64400;44.762;37.698;2023-02-10T10:02:22;8.52;58.09
75782;DHT22;64400;44.762;37.698;2023-02-10T10:05:22;9.60;55.22
75782;DHT22;64400;44.762;37.698;2023-02-10T10:07:54;9.35;55.55
75782;DHT22;64400;44.762;37.698;2023-02-10T10:10:46;9.45;55.10
75782;DHT22;64400;44.762;37.698;2023-02-10T10:13:27;9.74;53.59
75782;DHT22;64400;44.762;37.698;2023-02-10T10:23:22;7.70;58.09
75782;DHT22;64400;44.762;37.698;2023-02-10T10:29:09;7.39;57.64
75782;DHT22;64400;44.762;37.698;2023-02-10T10:32:17;7.28;58.16
75782;DHT22;64400;44.762;37.698;2023-02-10T10:35:15;7.35;57.40
75782;DHT22;64400;44.762;37.698;2023-02-10T10:38:19;7.26;58.13
75782;DHT22;64400;44.762;37.698;2023-02-10T10:41:12;7.69;56.86
75782;DHT22;64400;44.762;37.698;2023-02-10T10:44:01;8.38;57.02
75782;DHT22;64400;44.762;37.698;2023-02-10T10:46:40;9.39;52.62
75782;DHT22;64400;44.762;37.698;2023-02-10T10:49:18;9.96;51.22
75782;DHT22;64400;44.762;37.698;2023-02-10T10:52:31;10.46;48.82
75782;DHT22;64400;44.762;37.698;2023-02-10T10:55:03;10.26;49.79
75782;DHT22;64400;44.762;37.698;2023-02-10T10:57:32;10.22;48.74
75782;DHT22;64400;44.762;37.698;2023-02-10T11:03:14;11.45;47.26
75782;DHT22;64400;44.762;37.698;2023-02-10T11:05:42;11.64;46.80
75782;DHT22;64400;44.762;37.698;2023-02-10T11:08:30;11.30;46.25
75782;DHT22;64400;44.762;37.698;2023-02-10T11:11:00;10.34;47.79
75782;DHT22;64400;44.762;37.698;2023-02-10T11:13:36;9.85;49.97
75782;DHT22;64400;44.762;37.698;2023-02-10T11:16:25;9.78;51.20
75782;DHT22;64400;44.762;37.698;2023-02-10T11:19:26;9.99;50.87
75782;DHT22;64400;44.762;37.698;2023-02-10T11:22:13;10.58;49.53
75782;DHT22;64400;44.762;37.698;2023-02-10T11:24:50;11.38;48.28
75782;DHT22;64400;44.762;37.698;2023-02-10T11:27:49;12.03;45.76
75782;DHT22;64400;44.762;37.698;2023-02-10T11:30:38;11.66;47.03
75782;DHT22;64400;44.762;37.698;2023-02-10T11:33:25;11.81;46.89
75782;DHT22;64400;44.762;37.698;2023-02-10T11:36:08;12.44;45.58
75782;DHT22;64400;44.762;37.698;2023-02-10T11:38:44;13.01;45.07
75782;DHT22;64400;44.762;37.698;2023-02-10T11:41:28;13.48;43.43
75782;DHT22;64400;44.762;37.698;2023-02-10T11:44:28;13.67;44.70
75782;DHT22;64400;44.762;37.698;2023-02-10T11:47:11;14.11;41.17
75782;DHT22;64400;44.762;37.698;2023-02-10T11:49:50;14.32;40.24
75782;DHT22;64400;44.762;37.698;2023-02-10T11:52:22;14.78;40.08
75782;DHT22;64400;44.762;37.698;2023-02-10T11:54:51;15.14;39.97
75782;DHT22;64400;44.762;37.698;2023-02-10T12:00:41;15.27;38.53
75782;DHT22;64400;44.762;37.698;2023-02-10T12:03:42;15.30;38.33
75782;DHT22;64400;44.762;37.698;2023-02-10T12:06:38;15.09;38.58
75782;DHT22;64400;44.762;37.698;2023-02-10T12:48:27;8.36;54.22
75782;DHT22;64400;44.762;37.698;2023-02-10T12:54:30;7.40;56.61
75782;DHT22;64400;44.762;37.698;2023-02-10T13:00:19;6.39;60.55
75782;DHT22;64400;44.762;37.698;2023-02-10T13:03:11;6.14;61.44
75782;DHT22;64400;44.762;37.698;2023-02-10T13:06:34;5.67;62.02
75782;DHT22;64400;44.762;37.698;2023-02-10T13:09:32;5.27;63.05
75782;DHT22;64400;44.762;37.698;2023-02-10T13:12:33;4.84;64.92
75782;DHT22;64400;44.762;37.698;2023-02-10T13:15:30;4.66;66.38
75782;DHT22;64400;44.762;37.698;2023-02-10T13:18:23;4.49;65.97
75782;DHT22;64400;44.762;37.698;2023-02-10T13:21:30;4.24;66.96
75782;DHT22;64400;44.762;37.698;2023-02-10T13:24:26;4.06;68.07
75782;DHT22;64400;44.762;37.698;2023-02-10T13:36:34;3.45;69.72
75782;DHT22;64400;44.762;37.698;2023-02-10T13:39:21;3.44;70.93
75782;DHT22;64400;44.762;37.698;2023-02-10T13:42:30;3.48;71.42
75782;DHT22;64400;44.762;37.698;2023-02-10T13:48:02;3.42;70.55
75782;DHT22;64400;44.762;37.698;2023-02-10T13:51:03;3.36;71.90
75782;DHT22;64400;44.762;37.698;2023-02-10T13:53:53;3.23;72.06
75782;DHT22;64400;44.762;37.698;2023-02-10T13:56:53;3.21;71.99
75782;DHT22;64400;44.762;37.698;2023-02-10T13:59:40;3.25;72.58
75782;DHT22;64400;44.762;37.698;2023-02-10T14:02:39;3.09;72.07
75782;DHT22;64400;44.762;37.698;2023-02-10T14:05:39;3.06;72.56
75782;DHT22;64400;44.762;37.698;2023-02-10T14:08:43;2.96;72.43
75782;DHT22;64400;44.762;37.698;2023-02-10T14:11:35;2.82;72.93
75782;DHT22;64400;44.762;37.698;2023-02-10T14:14:26;2.75;73.41
75782;DHT22;64400;44.762;37.698;2023-02-10T14:19:57;2.57;74.37
75782;DHT22;64400;44.762;37.698;2023-02-10T14:22:40;2.50;73.16
75782;DHT22;64400;44.762;37.698;2023-02-10T14:28:22;2.20;74.19
75782;DHT22;64400;44.762;37.698;2023-02-10T14:31:15;2.07;74.34
75782;DHT22;64400;44.762;37.698;2023-02-10T14:34:17;1.83;75.68
75782;DHT22;64400;44.762;37.698;2023-02-10T14:37:15;1.60;76.03
75782;DHT22;64400;44.762;37.698;2023-02-10T14:40:00;1.43;75.98
75782;DHT22;64400;44.762;37.698;2023-02-10T14:42:49;1.25;77.00
75782;DHT22;64400;44.762;37.698;2023-02-10T14:45:23;1.12;76.88
75782;DHT22;64400;44.762;37.698;2023-02-10T14:47:55;1.04;77.60
75782;DHT22;64400;44.762;37.698;2023-02-10T14:50:31;0.96;77.93
75782;DHT22;64400;44.762;37.698;2023-02-10T14:52:59;0.93;78.69
75782;DHT22;64400;44.762;37.698;2023-02-10T14:58:21;0.78;78.67
75782;DHT22;64400;44.762;37.698;2023-02-10T15:04:00;0.65;79.45
75782;DHT22;64400;44.762;37.698;2023-02-10T15:06:49;0.62;79.73
75782;DHT22;64400;44.762;37.698;2023-02-10T15:09:43;0.60;80.30
75782;DHT22;64400;44.762;37.698;2023-02-10T15:12:32;0.49;80.78
75782;DHT22;64400;44.762;37.698;2023-02-10T15:15:27;0.46;81.36
75782;DHT22;64400;44.762;37.698;2023-02-10T15:18:02;0.45;81.54
75782;DHT22;64400;44.762;37.698;2023-02-10T15:20:54;0.40;80.94
75782;DHT22;64400;44.762;37.698;2023-02-10T15:23:22;0.37;80.58
75782;DHT22;64400;44.762;37.698;2023-02-10T15:28:31;0.29;82.12
75782;DHT22;64400;44.762;37.698;2023-02-10T15:34:14;0.27;82.33
75782;DHT22;64400;44.762;37.698;2023-02-10T15:37:05;0.22;82.78
75782;DHT22;64400;44.762;37.698;2023-02-10T15:39:54;0.12;82.13
75782;DHT22;64400;44.762;37.698;2023-02-10T15:42:29;0.14;83.29
75782;DHT22;64400;44.762;37.698;2023-02-10T15:45:20;0.15;82.57
75782;DHT22;64400;44.762;37.698;2023-02-10T15:48:05;0.20;83.70
75782;DHT22;64400;44.762;37.698;2023-02-10T15:50:54;0.21;83.93
75782;DHT22;64400;44.762;37.698;2023-02-10T15:53:36;0.21;84.09
75782;DHT22;64400;44.762;37.698;2023-02-10T15:56:25;0.24;84.19
75782;DHT22;64400;44.762;37.698;2023-02-10T15:59:15;0.29;83.36
75782;DHT22;64400;44.762;37.698;2023-02-10T16:01:59;0.31;84.00
75782;DHT22;64400;44.762;37.698;2023-02-10T16:04:41;0.33;82.54
75782;DHT22;64400;44.762;37.698;2023-02-10T16:07:25;0.35;84.53
75782;DHT22;64400;44.762;37.698;2023-02-10T16:10:20;0.31;83.76
75782;DHT22;64400;44.762;37.698;2023-02-10T16:13:03;0.25;83.55
75782;DHT22;64400;44.762;37.698;2023-02-10T16:15:32;0.13;84.25
75782;DHT22;64400;44.762;37.698;2023-02-10T16:18:24;0.12;84.84
75782;DHT22;64400;44.762;37.698;2023-02-10T16:21:16;0.10;85.17
75782;DHT22;64400;44.762;37.698;2023-02-10T16:23:58;0.18;85.27
75782;DHT22;64400;44.762;37.698;2023-02-10T16:26:40;0.23;85.75
75782;DHT22;64400;44.762;37.698;2023-02-10T16:29:27;0.32;84.62
75782;DHT22;64400;44.762;37.698;2023-02-10T16:32:09;0.37;85.38
75782;DHT22;64400;44.762;37.698;2023-02-10T16:34:59;0.40;85.22
75782;DHT22;64400;44.762;37.698;2023-02-10T16:37:41;0.43;84.74
75782;DHT22;64400;44.762;37.698;2023-02-10T16:40:43;0.47;84.86
75782;DHT22;64400;44.762;37.698;2023-02-10T16:43:32;0.50;85.24
75782;DHT22;64400;44.762;37.698;2023-02-10T16:46:21;0.53;84.59
75782;DHT22;64400;44.762;37.698;2023-02-10T16:49:13;0.58;84.83
75782;DHT22;64400;44.762;37.698;2023-02-10T16:51:55;0.59;84.97
75782;DHT22;64400;44.762;37.698;2023-02-10T16:54:24;0.61;84.30
75782;DHT22;64400;44.762;37.698;2023-02-10T16:57:17;0.60;85.66
75782;DHT22;64400;44.762;37.698;2023-02-10T16:59:59;0.58;85.50
75782;DHT22;64400;44.762;37.698;2023-02-10T17:02:42;0.48;85.64
75782;DHT22;64400;44.762;37.698;2023-02-10T17:05:24;0.50;86.45
75782;DHT22;64400;44.762;37.698;2023-02-10T17:07:56;0.53;86.20
75782;DHT22;64400;44.762;37.698;2023-02-10T17:10:44;0.59;85.83
75782;DHT22;64400;44.762;37.698;2023-02-10T17:13:26;0.60;85.94
75782;DHT22;64400;44.762;37.698;2023-02-10T17:16:21;0.51;85.80
75782;DHT22;64400;44.762;37.698;2023-02-10T17:19:05;0.52;85.10
75782;DHT22;64400;44.762;37.698;2023-02-10T17:21:48;0.55;85.01
75782;DHT22;64400;44.762;37.698;2023-02-10T17:24:37;0.58;87.03
75782;DHT22;64400;44.762;37.698;2023-02-10T17:27:10;0.59;86.62
75782;DHT22;64400;44.762;37.698;2023-02-10T17:29:59;0.63;85.93
75782;DHT22;64400;44.762;37.698;2023-02-10T17:32:26;0.62;86.42
75782;DHT22;64400;44.762;37.698;2023-02-10T17:34:52;0.59;87.26
75782;DHT22;64400;44.762;37.698;2023-02-10T17:37:19;0.55;87.30
75782;DHT22;64400;44.762;37.698;2023-02-10T17:39:46;0.52;87.25
75782;DHT22;64400;44.762;37.698;2023-02-10T17:42:16;0.45;87.43
75782;DHT22;64400;44.762;37.698;2023-02-10T17:44:58;0.32;87.59
75782;DHT22;64400;44.762;37.698;2023-02-10T17:47:40;0.20;87.81
75782;DHT22;64400;44.762;37.698;2023-02-10T17:50:28;0.15;88.46
75782;DHT22;64400;44.762;37.698;2023-02-10T17:53:10;-0.05;89.89
75782;DHT22;64400;44.762;37.698;2023-02-10T17:55:53;-0.05;90.12
75782;DHT22;64400;44.762;37.698;2023-02-10T17:58:42;0.03;90.32
75782;DHT22;64400;44.762;37.698;2023-02-10T18:01:19;0.05;89.69
75782;DHT22;64400;44.762;37.698;2023-02-10T18:03:46;0.06;89.66
75782;DHT22;64400;44.762;37.698;2023-02-10T18:06:14;0.08;89.68
75782;DHT22;64400;44.762;37.698;2023-02-10T18:08:44;0.14;89.90
75782;DHT22;64400;44.762;37.698;2023-02-10T18:11:12;0.18;90.08
75782;DHT22;64400;44.762;37.698;2023-02-10T18:13:39;0.21;90.58
75782;DHT22;64400;44.762;37.698;2023-02-10T18:16:07;0.21;90.81
75782;DHT22;64400;44.762;37.698;2023-02-10T18:18:56;0.24;90.44
75782;DHT22;64400;44.762;37.698;2023-02-10T18:21:23;0.28;90.72
75782;DHT22;64400;44.762;37.698;2023-02-10T18:23:59;0.27;90.87
75782;DHT22;64400;44.762;37.698;2023-02-10T18:26:50;0.30;91.05
75782;DHT22;64400;44.762;37.698;2023-02-10T18:29:25;0.31;90.07
75782;DHT22;64400;44.762;37.698;2023-02-10T18:32:05;0.33;90.76
75782;DHT22;64400;44.762;37.698;2023-02-10T18:34:54;0.33;90.66